createdAt,value
2023-02-05T00:00:18.140Z,79.30
2023-02-05T00:01:18.138Z,79.41
2023-02-05T00:02:18.127Z,79.61
2023-02-05T00:03:18.146Z,79.61
2023-02-05T00:04:18.177Z,79.83
2023-02-05T00:05:18.108Z,79.83
2023-02-05T00:06:18.070Z,80.04
2023-02-05T00:07:18.060Z,80.14
2023-02-05T00:08:18.049Z,80.35
2023-02-05T00:09:18.045Z,80.14
2023-02-05T00:10:18.028Z,80.04
2023-02-05T00:11:18.052Z,79.93
2023-02-05T00:12:18.006Z,79.83
2023-02-05T00:13:18.006Z,80.35
2023-02-05T00:14:17.978Z,81.07
2023-02-05T00:15:17.978Z,81.14
2023-02-05T00:16:18.072Z,81.04
2023-02-05T00:17:17.966Z,81.04
2023-02-05T00:18:17.936Z,81.24
2023-02-05T00:19:17.925Z,81.41
2023-02-05T00:20:17.916Z,81.30
2023-02-05T00:21:17.906Z,81.20
2023-02-05T00:22:17.926Z,80.99
2023-02-05T00:23:17.885Z,81.06
2023-02-05T00:24:17.864Z,81.06
2023-02-05T00:25:17.857Z,81.16
2023-02-05T00:26:17.850Z,81.06
2023-02-05T00:27:17.834Z,80.85
2023-02-05T00:28:17.919Z,80.65
2023-02-05T00:29:17.814Z,80.23
2023-02-05T00:30:17.798Z,80.19
2023-02-05T00:31:17.936Z,79.88
2023-02-05T00:32:17.778Z,79.78
2023-02-05T00:33:17.775Z,79.51
2023-02-05T00:34:17.786Z,79.58
2023-02-05T00:35:17.743Z,79.47
2023-02-05T00:36:17.735Z,79.27
2023-02-05T00:37:17.735Z,79.27
2023-02-05T00:38:17.726Z,79.37
2023-02-05T00:39:17.703Z,79.16
2023-02-05T00:40:17.724Z,79.06
2023-02-05T00:41:17.683Z,78.96
2023-02-05T00:42:17.664Z,78.85
2023-02-05T00:43:17.663Z,78.75
2023-02-05T00:44:17.664Z,78.75
2023-02-05T00:45:17.633Z,78.75
2023-02-05T00:46:17.705Z,78.85
2023-02-05T00:47:17.617Z,79.16
2023-02-05T00:48:17.616Z,79.37
2023-02-05T00:49:17.596Z,79.44
2023-02-05T00:50:17.593Z,79.13
2023-02-05T00:51:17.583Z,78.92
2023-02-05T00:52:17.607Z,78.81
2023-02-05T00:53:17.557Z,78.71
2023-02-05T00:54:17.534Z,78.61
2023-02-05T00:55:17.522Z,78.40
2023-02-05T00:56:17.513Z,78.40
2023-02-05T00:57:17.514Z,78.40
2023-02-05T00:58:17.495Z,78.81
2023-02-05T00:59:17.473Z,79.02
2023-02-05T01:00:17.494Z,79.23
2023-02-05T01:01:17.522Z,79.78
2023-02-05T01:02:17.467Z,80.30
2023-02-05T01:03:17.455Z,80.61
2023-02-05T01:04:17.432Z,80.47
2023-02-05T01:05:17.417Z,80.36
2023-02-05T01:06:17.394Z,80.16
2023-02-05T01:07:17.391Z,79.81
2023-02-05T01:08:17.486Z,79.50
2023-02-05T01:09:17.421Z,79.09
2023-02-05T01:10:17.350Z,79.30
2023-02-05T01:11:17.343Z,79.40
2023-02-05T01:12:17.368Z,79.50
2023-02-05T01:13:18.161Z,79.60
2023-02-05T01:14:17.342Z,79.57
2023-02-05T01:15:17.295Z,79.05
2023-02-05T01:16:17.391Z,78.53
2023-02-05T01:17:17.281Z,78.64
2023-02-05T01:18:17.265Z,78.53
2023-02-05T01:19:17.245Z,78.22
2023-02-05T01:20:17.260Z,78.12
2023-02-05T01:21:17.225Z,78.26
2023-02-05T01:22:17.215Z,79.09
2023-02-05T01:23:17.239Z,78.88
2023-02-05T01:24:17.193Z,79.19
2023-02-05T01:25:17.184Z,79.50
2023-02-05T01:26:17.185Z,79.09
2023-02-05T01:27:17.193Z,79.09
2023-02-05T01:28:17.206Z,78.88
2023-02-05T01:29:17.143Z,78.85
2023-02-05T01:30:17.148Z,78.64
2023-02-05T01:31:17.251Z,78.43
2023-02-05T01:32:17.105Z,78.53
2023-02-05T01:33:17.118Z,78.12
2023-02-05T01:34:17.076Z,78.43
2023-02-05T01:35:17.079Z,78.43
2023-02-05T01:36:17.090Z,78.53
2023-02-05T01:37:17.066Z,78.53
2023-02-05T01:38:17.035Z,78.74
2023-02-05T01:39:17.026Z,78.74
2023-02-05T01:40:17.011Z,78.53
2023-02-05T01:41:17.002Z,78.53
2023-02-05T01:42:17.011Z,78.53
2023-02-05T01:43:16.998Z,78.22
2023-02-05T01:44:16.961Z,78.02
2023-02-05T01:45:16.958Z,78.22
2023-02-05T01:46:17.090Z,78.12
2023-02-05T01:47:16.934Z,78.43
2023-02-05T01:48:16.939Z,78.74
2023-02-05T01:49:16.908Z,78.85
2023-02-05T01:50:16.894Z,78.88
2023-02-05T01:51:16.878Z,79.30
2023-02-05T01:52:16.868Z,78.95
2023-02-05T01:53:16.868Z,79.05
2023-02-05T01:54:16.867Z,78.85
2023-02-05T01:55:16.837Z,79.16
2023-02-05T01:56:16.828Z,79.05
2023-02-05T01:57:16.821Z,79.05
2023-02-05T01:58:16.797Z,78.85
2023-02-05T01:59:16.786Z,78.81
2023-02-05T02:00:16.825Z,78.64
2023-02-05T02:01:16.805Z,78.85
2023-02-05T02:02:16.758Z,78.95
2023-02-05T02:03:16.747Z,79.05
2023-02-05T02:04:16.740Z,78.74
2023-02-05T02:05:16.791Z,78.74
2023-02-05T02:06:16.732Z,78.60
2023-02-05T02:07:16.705Z,78.64
2023-02-05T02:08:16.693Z,78.39
2023-02-05T02:09:16.682Z,78.19
2023-02-05T02:10:16.655Z,77.94
2023-02-05T02:11:16.657Z,77.67
2023-02-05T02:12:16.656Z,77.87
2023-02-05T02:13:16.636Z,78.22
2023-02-05T02:14:16.621Z,78.64
2023-02-05T02:15:16.609Z,78.64
2023-02-05T02:16:16.620Z,78.64
2023-02-05T02:17:16.612Z,78.43
2023-02-05T02:18:16.566Z,78.33
2023-02-05T02:19:16.560Z,78.33
2023-02-05T02:20:16.545Z,78.43
2023-02-05T02:21:16.548Z,78.33
2023-02-05T02:22:16.524Z,78.43
2023-02-05T02:23:16.565Z,78.08
2023-02-05T02:24:16.511Z,78.33
2023-02-05T02:25:16.495Z,78.08
2023-02-05T02:26:16.475Z,77.67
2023-02-05T02:27:16.478Z,77.81
2023-02-05T02:28:16.489Z,78.22
2023-02-05T02:29:16.489Z,78.22
2023-02-05T02:30:16.433Z,78.12
2023-02-05T02:31:16.474Z,78.19
2023-02-05T02:32:16.438Z,78.08
2023-02-05T02:33:16.404Z,77.87
2023-02-05T02:34:16.387Z,77.84
2023-02-05T02:35:16.404Z,77.43
2023-02-05T02:36:16.371Z,77.33
2023-02-05T02:37:16.360Z,77.43
2023-02-05T02:38:16.343Z,77.33
2023-02-05T02:39:16.334Z,77.53
2023-02-05T02:40:16.323Z,77.33
2023-02-05T02:41:16.352Z,77.33
2023-02-05T02:42:16.293Z,77.12
2023-02-05T02:43:16.293Z,77.26
2023-02-05T02:44:16.274Z,77.67
2023-02-05T02:45:16.320Z,77.87
2023-02-05T02:46:16.300Z,77.98
2023-02-05T02:47:16.245Z,77.74
2023-02-05T02:48:16.226Z,77.47
2023-02-05T02:49:16.234Z,77.87
2023-02-05T02:50:16.206Z,78.29
2023-02-05T02:51:16.197Z,77.98
2023-02-05T02:52:16.230Z,78.08
2023-02-05T02:53:16.186Z,78.19
2023-02-05T02:54:16.165Z,78.08
2023-02-05T02:55:16.159Z,78.19
2023-02-05T02:56:16.151Z,78.19
2023-02-05T02:57:16.170Z,78.29
2023-02-05T02:58:16.124Z,78.29
2023-02-05T02:59:16.108Z,78.29
2023-02-05T03:00:16.109Z,78.22
2023-02-05T03:01:16.091Z,78.64
2023-02-05T03:02:16.081Z,78.53
2023-02-05T03:03:16.118Z,78.43
2023-02-05T03:04:16.049Z,78.50
2023-02-05T03:05:16.054Z,77.98
2023-02-05T03:06:16.030Z,77.77
2023-02-05T03:07:16.022Z,77.36
2023-02-05T03:08:16.008Z,77.47
2023-02-05T03:09:16.009Z,77.47
2023-02-05T03:10:15.990Z,77.26
2023-02-05T03:11:15.980Z,77.36
2023-02-05T03:12:15.961Z,77.26
2023-02-05T03:13:15.959Z,77.47
2023-02-05T03:14:15.960Z,77.26
2023-02-05T03:15:15.929Z,77.36
2023-02-05T03:16:15.978Z,77.22
2023-02-05T03:17:15.910Z,76.91
2023-02-05T03:18:15.889Z,76.81
2023-02-05T03:19:15.887Z,76.39
2023-02-05T03:20:15.889Z,76.50
2023-02-05T03:21:15.935Z,76.18
2023-02-05T03:22:15.848Z,76.64
2023-02-05T03:23:15.840Z,77.05
2023-02-05T03:24:15.848Z,77.09
2023-02-05T03:25:15.818Z,77.56
2023-02-05T03:26:15.889Z,76.95
2023-02-05T03:27:15.789Z,77.05
2023-02-05T03:28:15.814Z,77.36
2023-02-05T03:29:15.768Z,77.01
2023-02-05T03:30:15.769Z,76.81
2023-02-05T03:31:15.798Z,76.26
2023-02-05T03:32:15.746Z,76.09
2023-02-05T03:33:15.751Z,76.05
2023-02-05T03:34:15.711Z,75.57
2023-02-05T03:35:15.706Z,76.29
2023-02-05T03:36:15.686Z,76.29
2023-02-05T03:37:15.696Z,76.50
2023-02-05T03:38:15.673Z,77.22
2023-02-05T03:39:15.661Z,77.12
2023-02-05T03:40:15.637Z,77.53
2023-02-05T03:41:15.627Z,77.12
2023-02-05T03:42:15.618Z,77.53
2023-02-05T03:43:15.627Z,77.53
2023-02-05T03:44:15.602Z,77.74
2023-02-05T03:45:15.585Z,77.84
2023-02-05T03:46:15.566Z,77.98
2023-02-05T03:47:15.566Z,78.08
2023-02-05T03:48:15.581Z,78.05
2023-02-05T03:49:15.542Z,77.87
2023-02-05T03:50:15.529Z,78.08
2023-02-05T03:51:15.516Z,77.87
2023-02-05T03:52:15.500Z,78.19
2023-02-05T03:53:15.504Z,78.29
2023-02-05T03:54:15.508Z,78.60
2023-02-05T03:55:15.472Z,78.77
2023-02-05T03:56:15.473Z,78.46
2023-02-05T03:57:15.442Z,78.25
2023-02-05T03:58:15.433Z,78.15
2023-02-05T03:59:15.419Z,77.84
2023-02-05T04:00:15.425Z,77.81
2023-02-05T04:01:15.502Z,77.60
2023-02-05T04:02:15.423Z,77.08
2023-02-05T04:03:15.378Z,77.19
2023-02-05T04:04:15.370Z,77.22
2023-02-05T04:05:15.373Z,77.53
2023-02-05T04:06:15.357Z,78.05
2023-02-05T04:07:22.374Z,77.84
2023-02-05T04:08:15.317Z,77.81
2023-02-05T04:09:15.304Z,77.64
2023-02-05T04:10:15.293Z,78.15
2023-02-05T04:11:15.303Z,78.05
2023-02-05T04:12:15.273Z,77.84
2023-02-05T04:13:15.265Z,78.05
2023-02-05T04:14:15.245Z,77.98
2023-02-05T04:15:15.255Z,78.70
2023-02-05T04:16:15.312Z,78.60
2023-02-05T04:17:15.234Z,78.46
2023-02-05T04:18:15.201Z,78.05
2023-02-05T04:19:15.184Z,78.25
2023-02-05T04:20:15.177Z,78.36
2023-02-05T04:21:15.161Z,77.84
2023-02-05T04:22:15.171Z,77.74
2023-02-05T04:23:15.224Z,77.94
2023-02-05T04:24:15.260Z,78.36
2023-02-05T04:25:15.109Z,78.25
2023-02-05T04:26:15.100Z,78.15
2023-02-05T04:27:15.091Z,77.84
2023-02-05T04:28:15.191Z,78.05
2023-02-05T04:29:15.072Z,77.94
2023-02-05T04:30:15.064Z,77.94
2023-02-05T04:31:15.186Z,78.25
2023-02-05T04:32:15.043Z,77.94
2023-02-05T04:33:15.182Z,77.91
2023-02-05T04:34:15.043Z,77.81
2023-02-05T04:35:15.006Z,77.60
2023-02-05T04:36:14.996Z,77.64
2023-02-05T04:37:15.000Z,78.05
2023-02-05T04:38:14.982Z,78.25
2023-02-05T04:39:14.975Z,78.25
2023-02-05T04:40:14.980Z,78.25
2023-02-05T04:41:14.938Z,78.60
2023-02-05T04:42:14.935Z,78.67
2023-02-05T04:43:15.107Z,78.67
2023-02-05T04:44:14.905Z,78.56
2023-02-05T04:45:14.900Z,78.60
2023-02-05T04:46:14.936Z,79.12
2023-02-05T04:47:14.885Z,78.91
2023-02-05T04:48:14.864Z,79.02
2023-02-05T04:49:14.847Z,79.02
2023-02-05T04:50:14.877Z,78.88
2023-02-05T04:51:14.862Z,78.77
2023-02-05T04:52:14.820Z,78.88
2023-02-05T04:53:14.804Z,78.67
2023-02-05T04:54:14.796Z,78.25
2023-02-05T04:55:14.798Z,78.25
2023-02-05T04:56:14.769Z,78.05
2023-02-05T04:57:14.790Z,78.46
2023-02-05T04:58:14.755Z,78.25
2023-02-05T04:59:14.736Z,78.56
2023-02-05T05:00:14.726Z,78.36
2023-02-05T05:01:14.729Z,78.56
2023-02-05T05:02:14.736Z,78.36
2023-02-05T05:03:14.704Z,78.36
2023-02-05T05:04:14.674Z,78.36
2023-02-05T05:05:14.664Z,78.15
2023-02-05T05:06:14.654Z,78.29
2023-02-05T05:07:14.648Z,78.56
2023-02-05T05:08:14.634Z,78.36
2023-02-05T05:09:14.643Z,78.36
2023-02-05T05:10:14.621Z,78.05
2023-02-05T05:11:14.605Z,77.81
2023-02-05T05:12:14.594Z,77.39
2023-02-05T05:13:14.575Z,77.19
2023-02-05T05:14:14.593Z,77.33
2023-02-05T05:15:14.554Z,77.74
2023-02-05T05:16:14.618Z,77.53
2023-02-05T05:17:14.524Z,77.50
2023-02-05T05:18:14.524Z,77.50
2023-02-05T05:19:14.503Z,77.50
2023-02-05T05:20:14.550Z,77.19
2023-02-05T05:21:14.507Z,76.98
2023-02-05T05:22:14.477Z,76.67
2023-02-05T05:23:14.454Z,76.67
2023-02-05T05:24:14.453Z,77.12
2023-02-05T05:25:14.442Z,77.33
2023-02-05T05:26:14.449Z,77.50
2023-02-05T05:27:14.416Z,77.25
2023-02-05T05:28:14.434Z,76.94
2023-02-05T05:29:14.397Z,76.73
2023-02-05T05:30:14.386Z,76.87
2023-02-05T05:31:14.414Z,77.29
2023-02-05T05:32:14.437Z,77.53
2023-02-05T05:33:14.344Z,77.84
2023-02-05T05:34:14.335Z,77.94
2023-02-05T05:35:14.324Z,78.25
2023-02-05T05:36:14.322Z,78.36
2023-02-05T05:37:14.304Z,78.15
2023-02-05T05:38:14.313Z,78.15
2023-02-05T05:39:14.283Z,78.36
2023-02-05T05:40:14.274Z,78.98
2023-02-05T05:41:14.253Z,78.77
2023-02-05T05:42:14.254Z,78.56
2023-02-05T05:43:14.237Z,78.56
2023-02-05T05:44:14.253Z,78.56
2023-02-05T05:45:14.215Z,79.08
2023-02-05T05:46:14.219Z,79.39
2023-02-05T05:47:14.186Z,79.29
2023-02-05T05:48:14.182Z,79.29
2023-02-05T05:49:14.167Z,79.39
2023-02-05T05:50:14.172Z,79.60
2023-02-05T05:51:14.142Z,79.49
2023-02-05T05:52:14.133Z,79.66
2023-02-05T05:53:14.124Z,79.36
2023-02-05T05:54:14.112Z,79.56
2023-02-05T05:55:14.120Z,79.60
2023-02-05T05:56:14.110Z,79.91
2023-02-05T05:57:14.092Z,80.11
2023-02-05T05:58:14.061Z,80.39
2023-02-05T05:59:14.049Z,80.01
2023-02-05T06:00:14.089Z,80.43
2023-02-05T06:01:14.051Z,80.63
2023-02-05T06:02:14.032Z,81.09
2023-02-05T06:03:14.019Z,81.49
2023-02-05T06:04:14.024Z,81.39
2023-02-05T06:05:13.990Z,81.91
2023-02-05T06:06:14.007Z,81.77
2023-02-05T06:07:13.978Z,81.81
2023-02-05T06:08:13.979Z,82.01
2023-02-05T06:09:13.935Z,82.18
2023-02-05T06:10:13.925Z,82.29
2023-02-05T06:11:13.920Z,82.08
2023-02-05T06:12:13.926Z,82.08
2023-02-05T06:13:13.901Z,82.18
2023-02-05T06:14:13.885Z,82.18
2023-02-05T06:15:13.864Z,82.22
2023-02-05T06:16:13.897Z,82.60
2023-02-05T06:17:13.850Z,82.39
2023-02-05T06:18:13.869Z,82.08
2023-02-05T06:19:13.814Z,82.53
2023-02-05T06:20:13.823Z,82.95
2023-02-05T06:21:13.794Z,83.01
2023-02-05T06:22:13.785Z,82.90
2023-02-05T06:23:13.813Z,83.01
2023-02-05T06:24:13.763Z,83.01
2023-02-05T06:25:13.744Z,83.25
2023-02-05T06:26:13.743Z,83.36
2023-02-05T06:27:13.732Z,83.25
2023-02-05T06:28:13.742Z,83.56
2023-02-05T06:29:13.728Z,83.67
2023-02-05T06:30:13.693Z,83.77
2023-02-05T06:31:13.789Z,83.87
2023-02-05T06:32:13.674Z,83.98
2023-02-05T06:33:13.665Z,83.98
2023-02-05T06:34:13.657Z,83.87
2023-02-05T06:35:13.675Z,83.98
2023-02-05T06:36:13.625Z,84.12
2023-02-05T06:37:13.622Z,84.60
2023-02-05T06:38:13.605Z,84.33
2023-02-05T06:39:13.596Z,84.53
2023-02-05T06:40:13.591Z,84.84
2023-02-05T06:41:13.583Z,85.16
2023-02-05T06:42:13.563Z,85.36
2023-02-05T06:43:13.545Z,85.05
2023-02-05T06:44:13.536Z,85.47
2023-02-05T06:45:13.528Z,85.78
2023-02-05T06:46:13.553Z,85.57
2023-02-05T06:47:13.535Z,85.68
2023-02-05T06:48:13.499Z,85.47
2023-02-05T06:49:13.474Z,85.68
2023-02-05T06:50:13.489Z,85.68
2023-02-05T06:51:13.472Z,85.99
2023-02-05T06:52:13.465Z,85.88
2023-02-05T06:53:13.433Z,85.78
2023-02-05T06:54:13.423Z,85.68
2023-02-05T06:55:13.414Z,85.36
2023-02-05T06:56:13.401Z,85.47
2023-02-05T06:57:13.394Z,85.71
2023-02-05T06:58:13.393Z,86.44
2023-02-05T06:59:13.363Z,86.96
2023-02-05T07:00:13.354Z,87.30
2023-02-05T07:01:13.342Z,87.68
2023-02-05T07:02:13.352Z,87.57
2023-02-05T07:03:13.334Z,87.72
2023-02-05T07:04:13.318Z,87.99
2023-02-05T07:05:13.305Z,87.78
2023-02-05T07:06:13.299Z,87.88
2023-02-05T07:07:13.279Z,87.99
2023-02-05T07:08:13.286Z,87.47
2023-02-05T07:09:13.277Z,87.68
2023-02-05T07:10:13.250Z,87.57
2023-02-05T07:11:13.267Z,87.78
2023-02-05T07:12:13.226Z,87.68
2023-02-05T07:13:13.215Z,87.93
2023-02-05T07:14:13.217Z,88.55
2023-02-05T07:15:13.197Z,89.11
2023-02-05T07:16:13.282Z,89.52
2023-02-05T07:17:13.169Z,90.29
2023-02-05T07:18:13.157Z,90.81
2023-02-05T07:19:13.146Z,90.87
2023-02-05T07:20:13.151Z,91.08
2023-02-05T07:21:13.120Z,90.62
2023-02-05T07:22:13.107Z,90.20
2023-02-05T07:23:13.100Z,90.00
2023-02-05T07:24:13.087Z,89.38
2023-02-05T07:25:13.117Z,89.83
2023-02-05T07:26:13.067Z,90.04
2023-02-05T07:27:13.056Z,90.14
2023-02-05T07:28:13.121Z,90.56
2023-02-05T07:29:13.027Z,90.87
2023-02-05T07:30:13.025Z,90.52
2023-02-05T07:31:13.066Z,90.31
2023-02-05T07:32:12.997Z,90.10
2023-02-05T07:33:12.978Z,90.00
2023-02-05T07:34:12.977Z,89.89
2023-02-05T07:35:12.971Z,89.89
2023-02-05T07:36:12.959Z,89.69
2023-02-05T07:37:12.955Z,89.38
2023-02-05T07:38:12.925Z,89.48
2023-02-05T07:39:12.919Z,89.79
2023-02-05T07:40:12.911Z,89.86
2023-02-05T07:41:12.885Z,89.13
2023-02-05T07:42:12.874Z,89.23
2023-02-05T07:43:12.882Z,89.13
2023-02-05T07:44:12.869Z,88.61
2023-02-05T07:45:12.840Z,88.78
2023-02-05T07:46:12.879Z,88.67
2023-02-05T07:47:12.827Z,88.26
2023-02-05T07:48:12.830Z,88.46
2023-02-05T07:49:12.789Z,88.36
2023-02-05T07:50:12.787Z,87.91
2023-02-05T07:51:12.770Z,88.01
2023-02-05T07:52:12.761Z,87.60
2023-02-05T07:53:12.748Z,87.70
2023-02-05T07:54:12.758Z,87.49
2023-02-05T07:55:12.718Z,87.46
2023-02-05T07:56:12.718Z,86.98
2023-02-05T07:57:12.711Z,87.39
2023-02-05T07:58:12.688Z,87.29
2023-02-05T07:59:12.679Z,87.39
2023-02-05T08:00:12.692Z,87.85
2023-02-05T08:01:12.694Z,87.95
2023-02-05T08:02:12.648Z,87.74
2023-02-05T08:03:12.631Z,88.16
2023-02-05T08:04:12.675Z,88.12
2023-02-05T08:05:12.606Z,87.91
2023-02-05T08:06:12.626Z,87.70
2023-02-05T08:07:12.603Z,87.49
2023-02-05T08:08:12.576Z,87.15
2023-02-05T08:09:12.571Z,87.08
2023-02-05T08:10:12.556Z,87.33
2023-02-05T08:11:12.565Z,87.81
2023-02-05T08:12:12.556Z,87.70
2023-02-05T08:13:12.516Z,87.33
2023-02-05T08:14:12.517Z,87.99
2023-02-05T08:15:12.496Z,88.71
2023-02-05T08:16:12.546Z,88.67
2023-02-05T08:17:12.511Z,88.57
2023-02-05T08:18:12.457Z,88.67
2023-02-05T08:19:12.824Z,88.57
2023-02-05T08:20:12.469Z,88.36
2023-02-05T08:21:12.441Z,88.46
2023-02-05T08:22:12.416Z,88.57
2023-02-05T08:23:12.431Z,88.22
2023-02-05T08:24:12.397Z,87.97
2023-02-05T08:25:12.391Z,87.04
2023-02-05T08:26:12.393Z,87.08
2023-02-05T08:27:12.355Z,87.64
2023-02-05T08:28:12.394Z,87.70
2023-02-05T08:29:12.336Z,87.39
2023-02-05T08:30:12.325Z,87.08
2023-02-05T08:31:12.338Z,87.08
2023-02-05T08:32:12.305Z,87.49
2023-02-05T08:33:12.296Z,87.49
2023-02-05T08:34:12.295Z,87.18
2023-02-05T08:35:12.275Z,87.29
2023-02-05T08:36:12.254Z,87.25
2023-02-05T08:37:12.246Z,86.83
2023-02-05T08:38:12.234Z,86.73
2023-02-05T08:39:12.236Z,86.83
2023-02-05T08:40:12.225Z,86.49
2023-02-05T08:41:12.229Z,86.18
2023-02-05T08:42:12.188Z,85.97
2023-02-05T08:43:12.194Z,85.45
2023-02-05T08:44:12.179Z,85.55
2023-02-05T08:45:12.156Z,85.80
2023-02-05T08:46:12.302Z,86.25
2023-02-05T08:47:12.136Z,87.18
2023-02-05T08:48:12.123Z,86.83
2023-02-05T08:49:12.114Z,87.04
2023-02-05T08:50:12.095Z,86.88
2023-02-05T08:51:12.084Z,87.43
2023-02-05T08:52:12.094Z,88.36
2023-02-05T08:53:12.066Z,88.78
2023-02-05T08:54:12.054Z,88.84
2023-02-05T08:55:12.047Z,88.32
2023-02-05T08:56:12.024Z,88.12
2023-02-05T08:57:12.033Z,88.32
2023-02-05T08:58:12.014Z,88.32
2023-02-05T08:59:12.003Z,88.43
2023-02-05T09:00:12.001Z,88.01
2023-02-05T09:01:12.040Z,88.01
2023-02-05T09:02:11.956Z,88.12
2023-02-05T09:03:11.987Z,88.22
2023-02-05T09:04:11.971Z,88.12
2023-02-05T09:05:11.935Z,88.22
2023-02-05T09:06:11.913Z,88.22
2023-02-05T09:07:11.902Z,88.43
2023-02-05T09:08:11.891Z,88.49
2023-02-05T09:09:11.903Z,88.18
2023-02-05T09:10:11.875Z,87.76
2023-02-05T09:11:11.861Z,88.01
2023-02-05T09:12:11.843Z,88.39
2023-02-05T09:13:11.832Z,88.07
2023-02-05T09:14:11.822Z,87.62
2023-02-05T09:15:11.833Z,87.41
2023-02-05T09:16:11.791Z,87.07
2023-02-05T09:17:11.792Z,86.49
2023-02-05T09:18:11.770Z,87.10
2023-02-05T09:19:11.763Z,87.00
2023-02-05T09:20:11.752Z,86.49
2023-02-05T09:21:11.773Z,86.83
2023-02-05T09:22:11.733Z,87.35
2023-02-05T09:23:11.724Z,87.83
2023-02-05T09:24:11.714Z,87.31
2023-02-05T09:25:11.703Z,87.35
2023-02-05T09:26:11.684Z,87.76
2023-02-05T09:27:11.704Z,87.93
2023-02-05T09:28:11.735Z,87.27
2023-02-05T09:29:12.125Z,86.90
2023-02-05T09:30:11.648Z,87.21
2023-02-05T09:31:11.722Z,87.21
2023-02-05T09:32:11.648Z,87.07
2023-02-05T09:33:11.658Z,87.07
2023-02-05T09:34:11.603Z,86.76
2023-02-05T09:35:11.600Z,86.96
2023-02-05T09:36:11.575Z,86.65
2023-02-05T09:37:11.572Z,86.65
2023-02-05T09:38:11.575Z,86.55
2023-02-05T09:39:18.444Z,86.55
2023-02-05T09:40:20.536Z,86.44
2023-02-05T09:41:12.530Z,86.65
2023-02-05T09:42:11.551Z,86.61
2023-02-05T09:43:11.509Z,86.41
2023-02-05T09:44:11.507Z,86.10
2023-02-05T09:45:11.518Z,86.10
2023-02-05T09:46:11.519Z,85.95
2023-02-05T09:47:11.508Z,85.75
2023-02-05T09:48:11.448Z,85.13
2023-02-05T09:49:11.457Z,85.37
2023-02-05T09:50:11.429Z,85.47
2023-02-05T09:51:11.445Z,86.03
2023-02-05T09:52:11.405Z,86.34
2023-02-05T09:53:11.495Z,86.76
2023-02-05T09:54:11.381Z,86.65
2023-02-05T09:55:11.375Z,86.82
2023-02-05T09:56:11.364Z,86.55
2023-02-05T09:57:11.373Z,86.65
2023-02-05T09:58:11.343Z,87.00
2023-02-05T09:59:11.333Z,87.62
2023-02-05T10:00:11.314Z,87.83
2023-02-05T10:01:11.345Z,88.18
2023-02-05T10:02:11.311Z,88.49
2023-02-05T10:03:11.291Z,88.80
2023-02-05T10:04:11.424Z,88.90
2023-02-05T10:05:11.260Z,88.80
2023-02-05T10:06:11.240Z,88.90
2023-02-05T10:07:11.261Z,89.07
2023-02-05T10:08:11.254Z,89.03
2023-02-05T10:09:11.220Z,88.31
2023-02-05T10:10:11.200Z,88.41
2023-02-05T10:11:11.191Z,88.14
2023-02-05T10:12:11.178Z,88.51
2023-02-05T10:13:11.169Z,88.51
2023-02-05T10:14:11.181Z,88.20
2023-02-05T10:15:11.150Z,88.10
2023-02-05T10:16:11.185Z,87.74
2023-02-05T10:17:11.127Z,87.89
2023-02-05T10:18:11.116Z,87.58
2023-02-05T10:19:11.117Z,87.79
2023-02-05T10:20:18.156Z,87.89
2023-02-05T10:21:11.088Z,87.79
2023-02-05T10:22:13.695Z,87.68
2023-02-05T10:23:11.065Z,87.89
2023-02-05T10:24:11.047Z,88.10
2023-02-05T10:25:11.046Z,87.99
2023-02-05T10:26:11.048Z,88.51
2023-02-05T10:27:11.036Z,88.61
2023-02-05T10:28:11.042Z,88.31
2023-02-05T10:29:11.002Z,88.65
2023-02-05T10:30:10.988Z,88.65
2023-02-05T10:31:11.043Z,88.76
2023-02-05T10:32:10.979Z,88.41
2023-02-05T10:33:10.952Z,88.71
2023-02-05T10:34:10.949Z,88.20
2023-02-05T10:35:10.928Z,88.10
2023-02-05T10:36:10.920Z,88.16
2023-02-05T10:37:10.912Z,88.06
2023-02-05T10:38:10.918Z,87.95
2023-02-05T10:39:10.889Z,88.20
2023-02-05T10:40:10.868Z,88.20
2023-02-05T10:41:10.868Z,88.41
2023-02-05T10:42:10.850Z,88.51
2023-02-05T10:43:10.847Z,88.37
2023-02-05T10:44:10.856Z,88.06
2023-02-05T10:45:10.816Z,88.26
2023-02-05T10:46:10.877Z,88.26
2023-02-05T10:47:10.797Z,88.06
2023-02-05T10:48:10.793Z,88.06
2023-02-05T10:49:10.797Z,87.85
2023-02-05T10:50:10.756Z,88.16
2023-02-05T10:51:10.746Z,88.16
2023-02-05T10:52:10.738Z,88.26
2023-02-05T10:53:10.726Z,88.37
2023-02-05T10:54:10.717Z,88.61
2023-02-05T10:55:10.726Z,88.71
2023-02-05T10:56:10.697Z,88.92
2023-02-05T10:57:10.686Z,89.13
2023-02-05T10:58:10.670Z,89.40
2023-02-05T10:59:10.656Z,88.32
2023-02-05T11:00:10.760Z,88.26
2023-02-05T11:01:10.664Z,88.26
2023-02-05T11:02:10.626Z,88.37
2023-02-05T11:03:10.615Z,88.26
2023-02-05T11:04:10.606Z,87.85
2023-02-05T11:05:10.595Z,88.06
2023-02-05T11:06:10.584Z,88.12
2023-02-05T11:07:10.597Z,87.54
2023-02-05T11:08:10.566Z,87.95
2023-02-05T11:09:10.557Z,88.57
2023-02-05T11:10:10.544Z,88.57
2023-02-05T11:11:10.526Z,88.51
2023-02-05T11:12:10.515Z,88.71
2023-02-05T11:13:10.525Z,89.09
2023-02-05T11:14:10.496Z,88.98
2023-02-05T11:15:10.485Z,88.89
2023-02-05T11:16:10.490Z,89.50
2023-02-05T11:17:10.465Z,89.09
2023-02-05T11:18:10.443Z,90.02
2023-02-05T11:19:10.494Z,90.02
2023-02-05T11:20:10.422Z,89.75
2023-02-05T11:21:10.413Z,90.33
2023-02-05T11:22:10.405Z,90.43
2023-02-05T11:23:10.406Z,90.12
2023-02-05T11:24:10.392Z,89.61
2023-02-05T11:25:10.424Z,89.15
2023-02-05T11:26:10.362Z,88.53
2023-02-05T11:27:10.351Z,88.43
2023-02-05T11:28:10.373Z,88.12
2023-02-05T11:29:10.334Z,88.12
2023-02-05T11:30:10.312Z,88.12
2023-02-05T11:31:10.388Z,87.92
2023-02-05T11:32:12.603Z,87.85
2023-02-05T11:33:10.281Z,88.32
2023-02-05T11:34:10.275Z,88.43
2023-02-05T11:35:10.279Z,88.32
2023-02-05T11:36:10.254Z,88.22
2023-02-05T11:37:10.261Z,87.92
2023-02-05T11:38:10.223Z,87.98
2023-02-05T11:39:10.212Z,87.81
2023-02-05T11:40:10.216Z,87.56
2023-02-05T11:41:10.205Z,87.66
2023-02-05T11:42:10.202Z,87.66
2023-02-05T11:43:10.194Z,87.46
2023-02-05T11:44:10.162Z,87.71
2023-02-05T11:45:10.151Z,87.92
2023-02-05T11:46:10.209Z,88.18
2023-02-05T11:47:10.130Z,88.08
2023-02-05T11:48:10.132Z,88.02
2023-02-05T11:49:10.110Z,88.43
2023-02-05T11:50:10.104Z,88.22
2023-02-05T11:51:10.090Z,88.32
2023-02-05T11:52:10.112Z,88.53
2023-02-05T11:53:10.071Z,88.53
2023-02-05T11:54:10.072Z,88.49
2023-02-05T11:55:10.042Z,88.49
2023-02-05T11:56:10.046Z,88.18
2023-02-05T11:57:10.024Z,88.29
2023-02-05T11:58:10.015Z,87.98
2023-02-05T11:59:10.003Z,88.29
2023-02-05T12:00:10.016Z,88.29
2023-02-05T12:01:09.983Z,88.39
2023-02-05T12:02:09.999Z,88.90
2023-02-05T12:03:09.990Z,88.80
2023-02-05T12:04:09.942Z,88.39
2023-02-05T12:05:09.943Z,88.70
2023-02-05T12:06:09.984Z,88.70
2023-02-05T12:07:09.913Z,88.80
2023-02-05T12:08:09.893Z,88.86
2023-02-05T12:09:09.918Z,88.45
2023-02-05T12:10:09.898Z,88.18
2023-02-05T12:11:09.914Z,88.45
2023-02-05T12:12:09.853Z,88.35
2023-02-05T12:13:09.844Z,88.04
2023-02-05T12:14:09.835Z,88.04
2023-02-05T12:15:09.828Z,88.24
2023-02-05T12:16:09.834Z,87.93
2023-02-05T12:17:09.837Z,88.65
2023-02-05T12:18:09.785Z,88.24
2023-02-05T12:19:09.784Z,88.24
2023-02-05T12:20:09.765Z,88.14
2023-02-05T12:21:09.755Z,88.56
2023-02-05T12:22:09.774Z,88.86
2023-02-05T12:23:09.743Z,88.62
2023-02-05T12:24:09.724Z,88.20
2023-02-05T12:25:09.714Z,87.79
2023-02-05T12:26:09.705Z,87.27
2023-02-05T12:27:09.693Z,86.87
2023-02-05T12:28:09.779Z,86.49
2023-02-05T12:29:09.672Z,86.49
2023-02-05T12:30:09.672Z,87.01
2023-02-05T12:31:09.645Z,87.21
2023-02-05T12:32:09.642Z,87.66
2023-02-05T12:33:09.620Z,88.70
2023-02-05T12:34:09.631Z,88.59
2023-02-05T12:35:09.610Z,88.56
2023-02-05T12:36:09.589Z,88.35
2023-02-05T12:37:09.570Z,88.35
2023-02-05T12:38:09.559Z,87.73
2023-02-05T12:39:09.569Z,87.83
2023-02-05T12:40:09.546Z,88.45
2023-02-05T12:41:09.537Z,88.35
2023-02-05T12:42:09.521Z,88.04
2023-02-05T12:43:09.559Z,87.79
2023-02-05T12:44:09.496Z,87.59
2023-02-05T12:45:09.509Z,87.32
2023-02-05T12:46:09.515Z,87.15
2023-02-05T12:47:09.466Z,87.35
2023-02-05T12:48:09.449Z,87.63
2023-02-05T12:49:09.428Z,87.52
2023-02-05T12:50:09.426Z,87.21
2023-02-05T12:51:09.518Z,87.11
2023-02-05T12:52:09.410Z,87.38